Time;durP1;ratioP1;P1;durP2;ratioP2;P2;SDS_P1;SDS_P2;PMS_P1;PMS_P2;Temp;Humidity;BMP_temperature;BMP_pressure;BME280_temperature;BME280_humidity;BME280_pressure;Samples;Min_cycle;Max_cycle;Signal;HPM_P1;HPM_P2
2021/03/28 00:00:27;;;;;;;7.38;3.22;;;;;;;7.17;55.65;101285.97;5060660;27;101594;-75
2021/03/28 00:02:54;;;;;;;8.33;3.63;;;;;;;7.09;55.77;101290.34;5060829;27;101123;-76
2021/03/28 00:05:23;;;;;;;11.20;3.87;;;;;;;7.05;55.97;101283.41;5029457;27;96752;-76
2021/03/28 00:07:53;;;;;;;8.53;3.70;;;;;;;6.96;56.19;101293.91;5061722;27;96833;-76
2021/03/28 00:10:39;;;;;;;7.20;3.63;;;;;;;6.97;55.74;101286.06;5059298;27;101241;-76
2021/03/28 00:13:07;;;;;;;6.97;3.30;;;;;;;6.88;56.45;101290.44;5040432;27;102558;-76
2021/03/28 00:15:37;;;;;;;5.87;3.00;;;;;;;6.84;56.63;101293.94;5044112;27;97163;-76
2021/03/28 00:18:09;;;;;;;6.03;3.73;;;;;;;6.82;56.43;101288.72;5078155;27;96699;-76
2021/03/28 00:20:37;;;;;;;8.90;3.10;;;;;;;6.81;56.49;101294.81;5077719;27;101600;-75
2021/03/28 00:23:11;;;;;;;7.53;3.47;;;;;;;6.71;56.64;101296.56;5043344;27;101441;-76
2021/03/28 00:25:42;;;;;;;7.87;3.43;;;;;;;6.69;56.82;101294.84;5061443;27;97052;-75
2021/03/28 00:28:40;;;;;;;9.70;3.30;;;;;;;6.68;57.15;101299.19;5077898;27;96842;-76
2021/03/28 00:31:15;;;;;;;6.03;2.53;;;;;;;6.66;57.23;101305.28;5043276;27;101764;-76
2021/03/28 00:33:43;;;;;;;5.23;3.00;;;;;;;6.59;57.33;101307.03;5057392;27;101585;-77
2021/03/28 00:36:12;;;;;;;6.63;3.17;;;;;;;6.51;57.55;101296.63;5042472;27;97046;-75
2021/03/28 00:38:38;;;;;;;7.80;3.50;;;;;;;6.61;57.08;101302.69;5057825;27;97021;-76
2021/03/28 00:41:08;;;;;;;5.60;3.13;;;;;;;6.67;57.11;101300.06;5073814;27;98507;-76
2021/03/28 00:43:57;;;;;;;5.20;2.73;;;;;;;6.52;57.26;101306.19;5035684;27;101387;-76
2021/03/28 00:46:48;;;;;;;6.87;3.43;;;;;;;6.45;57.88;101317.50;5038532;27;97151;-76
2021/03/28 00:49:40;;;;;;;4.70;2.67;;;;;;;6.41;57.77;101313.16;5074057;27;97096;-76
2021/03/28 00:52:13;;;;;;;5.43;2.83;;;;;;;6.39;57.83;101314.03;5034149;27;101683;-76
2021/03/28 00:54:46;;;;;;;5.37;2.77;;;;;;;6.37;57.87;101318.38;5057301;27;101417;-75
2021/03/28 00:57:21;;;;;;;7.57;3.60;;;;;;;6.39;57.34;101317.50;5057533;27;97085;-76
2021/03/28 00:59:53;;;;;;;5.90;3.03;;;;;;;6.46;57.79;101321.88;5053724;27;96929;-76
2021/03/28 01:03:08;;;;;;;6.80;3.60;;;;;;;6.42;57.61;101314.03;5058932;27;98924;-76
2021/03/28 01:05:43;;;;;;;7.97;4.07;;;;;;;6.52;57.43;101323.59;5057526;27;101626;-76
2021/03/28 01:08:21;;;;;;;9.03;3.93;;;;;;;6.60;57.23;101329.66;5036424;27;97041;-75
2021/03/28 01:11:10;;;;;;;5.17;3.50;;;;;;;6.55;57.39;101334.03;5043762;27;96943;-76
2021/03/28 01:14:33;;;;;;;7.07;3.70;;;;;;;6.53;57.22;101336.63;5039772;27;100463;-75
2021/03/28 01:17:20;;;;;;;7.77;3.27;;;;;;;6.46;57.89;101340.13;5018085;28;98140;-81
2021/03/28 01:19:48;;;;;;;7.87;4.00;;;;;;;6.41;57.74;101339.25;5002755;28;96927;-76
2021/03/28 01:22:25;;;;;;;7.00;3.53;;;;;;;6.49;57.44;101334.03;5053306;27;96967;-76
2021/03/28 01:24:51;;;;;;;5.13;3.30;;;;;;;6.48;57.75;101338.34;5077246;27;101548;-76
2021/03/28 01:27:34;;;;;;;7.10;3.40;;;;;;;6.51;57.67;101347.91;5059523;27;101210;-76
2021/03/28 01:30:06;;;;;;;7.00;3.53;;;;;;;6.58;57.31;101350.53;5056879;27;96863;-81
2021/03/28 01:32:57;;;;;;;7.87;3.30;;;;;;;6.49;57.73;101358.38;5070522;27;96838;-75
2021/03/28 01:35:36;;;;;;;6.13;3.27;;;;;;;6.39;58.02;101358.38;5055263;27;101969;-76
2021/03/28 01:38:10;;;;;;;5.87;3.53;;;;;;;6.26;58.24;101361.00;5058834;27;98422;-83
2021/03/28 01:40:46;;;;;;;5.07;3.30;;;;;;;6.33;58.39;101354.03;5077460;27;96821;-76
2021/03/28 01:43:32;;;;;;;6.27;3.27;;;;;;;6.18;58.48;101351.41;5059995;27;96822;-78
2021/03/28 01:46:03;;;;;;;6.17;3.67;;;;;;;6.22;58.60;101353.16;5076982;27;97302;-75
2021/03/28 01:48:52;;;;;;;7.18;3.47;;;;;;;6.34;57.93;101358.34;5059225;27;98290;-75
2021/03/28 01:51:31;;;;;;;8.70;3.57;;;;;;;6.08;58.76;101361.84;5056608;27;97037;-76
2021/03/28 01:54:23;;;;;;;10.07;3.87;;;;;;;6.19;58.58;101355.75;5071865;27;96788;-75
2021/03/28 01:57:03;;;;;;;11.10;4.25;;;;;;;6.04;58.69;101365.31;5077341;27;98431;-77
2021/03/28 01:59:36;;;;;;;11.37;3.83;;;;;;;6.00;59.27;101357.50;5059378;27;100662;-76
2021/03/28 02:02:25;;;;;;;9.57;4.10;;;;;;;6.12;59.03;101353.16;5060163;27;96856;-81
2021/03/28 02:04:57;;;;;;;14.20;4.87;;;;;;;6.19;58.45;101346.19;5060147;27;97122;-76
2021/03/28 02:07:30;;;;;;;9.48;4.00;;;;;;;6.07;59.02;101349.66;5038455;27;101102;-76
2021/03/28 02:10:28;;;;;;;7.43;3.50;;;;;;;6.04;59.08;101354.88;5056591;27;97925;-76
2021/03/28 02:13:02;;;;;;;13.30;3.93;;;;;;;6.11;58.75;101359.25;5049432;27;96813;-75
2021/03/28 02:15:37;;;;;;;7.10;3.63;;;;;;;6.06;59.10;101363.56;5039263;27;96935;-75
2021/03/28 02:18:24;;;;;;;6.27;3.43;;;;;;;6.10;58.65;101369.66;5055503;27;101568;-79
2021/03/28 02:21:24;;;;;;;9.47;3.70;;;;;;;6.02;59.13;101367.06;5059504;27;100970;-76
2021/03/28 02:24:08;;;;;;;8.53;3.83;;;;;;;5.98;58.95;101372.25;5060008;27;97179;-75
2021/03/28 02:26:40;;;;;;;10.67;3.67;;;;;;;5.90;59.66;101364.38;5046387;27;96782;-77
2021/03/28 02:29:05;;;;;;;;;;;;;;;5.99;59.16;101376.59;5058575;27;99734;-76
2021/03/28 02:31:52;;;;;;;14.90;4.17;;;;;;;5.91;59.34;101355.72;5077956;27;97788;-76
2021/03/28 02:34:26;;;;;;;9.83;3.73;;;;;;;5.93;59.17;101374.84;5059157;27;96941;-76
2021/03/28 02:37:09;;;;;;;9.60;3.77;;;;;;;5.93;59.06;101380.06;5057013;27;96547;-76
2021/03/28 02:39:49;;;;;;;7.10;3.37;;;;;;;5.91;59.43;101379.16;5058713;27;101724;-76
2021/03/28 02:42:23;;;;;;;6.70;3.40;;;;;;;5.82;59.54;101377.41;5055205;27;101329;-76
2021/03/28 02:44:55;;;;;;;8.03;3.90;;;;;;;5.84;59.47;101383.47;5053137;27;96726;-75
2021/03/28 02:47:38;;;;;;;;;;;;;;;5.74;59.88;101384.34;5066165;27;97435;-76
2021/03/28 02:50:14;;;;;;;5.30;3.28;;;;;;;5.71;59.46;101391.28;5065224;27;97868;-82
2021/03/28 02:52:59;;;;;;;6.60;3.67;;;;;;;5.82;59.27;101387.84;5059285;27;100264;-76
2021/03/28 02:55:26;;;;;;;10.67;3.60;;;;;;;5.83;59.16;101386.09;5076332;27;96729;-76
2021/03/28 02:58:09;;;;;;;5.70;3.87;;;;;;;5.83;59.64;101386.09;5039022;27;96910;-76
2021/03/28 03:00:40;;;;;;;9.33;3.97;;;;;;;5.93;59.24;101392.19;5071969;27;98148;-76
2021/03/28 03:03:24;;;;;;;8.07;4.00;;;;;;;5.86;59.16;101393.91;5075709;27;98040;-76
2021/03/28 03:06:21;;;;;;;9.37;3.80;;;;;;;5.89;59.30;101394.78;5070763;27;96728;-76
2021/03/28 03:09:07;;;;;;;8.57;3.73;;;;;;;5.84;59.30;101398.25;5072762;27;97028;-76
2021/03/28 03:11:58;;;;;;;4.30;3.50;;;;;;;5.85;59.19;101403.47;5076323;27;98623;-76
2021/03/28 03:14:56;;;;;;;7.23;4.33;;;;;;;5.71;59.30;101405.16;5058375;27;98275;-76
2021/03/28 03:17:55;;;;;;;8.23;4.50;;;;;;;5.58;59.73;101399.03;5055152;27;96981;-76
2021/03/28 03:20:24;;;;;;;7.20;4.27;;;;;;;5.77;59.43;101405.19;5051897;27;97320;-76
2021/03/28 03:23:29;;;;;;;9.30;4.63;;;;;;;5.80;59.51;101413.00;5050425;27;101513;-76
2021/03/28 03:26:03;;;;;;;8.90;4.23;;;;;;;5.64;59.85;101416.41;5045605;27;101587;-76
2021/03/28 03:28:32;;;;;;;9.10;4.70;;;;;;;5.54;60.05;101407.72;5073907;27;96764;-76
2021/03/28 03:31:02;;;;;;;6.03;4.37;;;;;;;5.57;60.29;101415.53;5077411;27;96755;-76
2021/03/28 03:34:06;;;;;;;8.80;5.37;;;;;;;5.53;60.03;101418.13;5054510;27;101270;-75
2021/03/28 03:36:53;;;;;;;9.57;5.13;;;;;;;5.42;60.37;101410.28;5053122;27;100915;-75
2021/03/28 03:39:48;;;;;;;10.13;4.60;;;;;;;5.57;60.26;101428.56;5036989;27;97067;-76
2021/03/28 03:42:52;;;;;;;11.10;6.10;;;;;;;5.57;59.86;101428.56;5057940;27;96827;-76
2021/03/28 03:45:23;;;;;;;7.27;5.17;;;;;;;5.42;60.57;101433.69;5075033;27;98478;-76
2021/03/28 03:48:13;;;;;;;13.03;5.37;;;;;;;5.49;60.16;101426.78;5053964;27;101632;-76
2021/03/28 03:51:09;;;;;;;10.90;6.00;;;;;;;5.43;60.22;101419.81;5069631;27;96968;-76
2021/03/28 03:53:46;;;;;;;9.03;5.33;;;;;;;5.42;60.36;101429.38;5074771;27;96911;-76
2021/03/28 03:56:28;;;;;;;11.70;5.80;;;;;;;5.36;60.55;101437.16;5073770;27;98228;-77
2021/03/28 03:58:56;;;;;;;9.85;5.07;;;;;;;5.45;60.43;101437.19;5039603;27;99574;-76
2021/03/28 04:01:32;;;;;;;12.03;5.50;;;;;;;5.46;60.42;101443.25;5074913;27;97193;-76
2021/03/28 04:04:43;;;;;;;10.53;5.27;;;;;;;5.46;60.42;101451.06;5055553;27;96660;-75
2021/03/28 04:07:20;;;;;;;9.07;4.90;;;;;;;5.42;60.67;101455.41;5032622;27;101779;-78
2021/03/28 04:10:01;;;;;;;8.93;5.20;;;;;;;5.46;60.45;101458.88;5054287;27;100949;-75
2021/03/28 04:12:45;;;;;;;12.00;4.23;;;;;;;5.47;60.48;101454.53;5061783;27;96640;-76
2021/03/28 04:15:32;;;;;;;9.57;4.83;;;;;;;5.43;60.28;101462.34;5075441;27;97135;-76
2021/03/28 04:18:03;;;;;;;11.57;4.53;;;;;;;5.43;60.17;101470.16;5057750;27;101261;-75
2021/03/28 04:21:02;;;;;;;9.07;4.43;;;;;;;5.47;60.38;101471.06;5060465;27;101308;-76
2021/03/28 04:24:04;;;;;;;8.30;4.40;;;;;;;5.45;60.36;101462.38;5074385;27;96958;-76
2021/03/28 04:26:55;;;;;;;6.18;3.80;;;;;;;5.40;60.06;101469.28;5074682;27;96705;-76
2021/03/28 04:29:22;;;;;;;9.87;4.43;;;;;;;5.40;60.08;101458.84;5036545;27;101913;-76
2021/03/28 04:32:02;;;;;;;7.33;4.30;;;;;;;5.38;60.50;101466.69;5040619;27;101230;-76
2021/03/28 04:34:43;;;;;;;11.20;4.80;;;;;;;5.37;60.03;101470.13;5057525;27;96790;-75
2021/03/28 04:37:27;;;;;;;9.20;4.83;;;;;;;5.44;60.17;101473.66;5074962;27;97271;-80
2021/03/28 04:40:24;;;;;;;8.90;3.47;;;;;;;5.41;60.51;101471.91;5074069;27;101279;-76
2021/03/28 04:43:01;;;;;;;6.47;3.47;;;;;;;5.48;60.08;101482.34;5074583;27;99410;-76
2021/03/28 04:45:27;;;;;;;5.83;3.47;;;;;;;5.49;59.73;101484.09;5057390;27;96617;-75
2021/03/28 04:48:15;;;;;;;7.57;3.87;;;;;;;5.44;60.38;101487.53;5057583;27;97050;-76
2021/03/28 04:51:20;;;;;;;8.33;3.93;;;;;;;5.43;59.98;101482.31;5054499;27;101667;-76
2021/03/28 04:54:29;;;;;;;10.13;5.73;;;;;;;5.48;59.99;101487.56;5054019;27;98039;-76
2021/03/28 04:57:10;;;;;;;10.33;5.13;;;;;;;5.50;59.91;101489.31;5030077;27;96709;-76
2021/03/28 04:59:44;;;;;;;8.73;4.50;;;;;;;5.57;60.75;101482.41;5045472;27;96783;-76
2021/03/28 05:02:48;;;;;;;7.53;4.20;;;;;;;5.54;60.06;101485.84;5056587;27;101927;-82
2021/03/28 05:05:38;;;;;;;10.63;5.23;;;;;;;5.72;59.96;101484.19;5056536;27;101739;-76
2021/03/28 05:08:15;;;;;;;8.87;4.83;;;;;;;5.76;59.56;101494.66;5040871;27;97016;-76
2021/03/28 05:11:02;;;;;;;12.13;6.27;;;;;;;5.82;59.50;101492.06;5074800;27;97008;-75
2021/03/28 05:14:05;;;;;;;22.87;12.40;;;;;;;5.97;59.23;101493.91;5056058;27;100927;-76
2021/03/28 05:17:02;;;;;;;35.93;25.03;;;;;;;6.21;58.48;101497.44;5074179;27;97512;-76
2021/03/28 05:20:08;;;;;;;30.00;18.33;;;;;;;6.47;57.87;101503.56;5072856;27;96761;-76
2021/03/28 05:22:48;;;;;;;36.63;26.17;;;;;;;6.74;57.38;101502.72;5046375;27;96864;-75
2021/03/28 05:25:17;;;;;;;26.67;17.50;;;;;;;6.75;57.02;101509.72;5072682;27;101231;-76
2021/03/28 05:28:07;;;;;;;19.60;14.40;;;;;;;6.89;56.91;101516.66;5055997;27;100361;-76
2021/03/28 05:31:11;;;;;;;18.13;10.20;;;;;;;7.12;56.68;101520.13;5061866;27;96834;-75
2021/03/28 05:34:02;;;;;;;13.47;6.50;;;;;;;7.39;55.62;101523.59;5028977;27;96837;-76
2021/03/28 05:36:38;;;;;;;9.00;5.40;;;;;;;7.75;54.81;101521.75;5073523;27;98476;-76
2021/03/28 05:39:31;;;;;;;9.30;4.90;;;;;;;8.04;53.72;101532.09;5056100;27;101737;-75
2021/03/28 05:42:51;;;;;;;12.33;5.80;;;;;;;8.53;52.41;101527.50;5059728;27;96715;-76
2021/03/28 05:45:52;;;;;;;8.37;4.20;;;;;;;8.64;52.16;101524.81;5014404;28;97190;-75
2021/03/28 05:48:45;;;;;;;11.33;4.33;;;;;;;8.02;53.16;101529.47;5017806;27;101499;-76
2021/03/28 05:51:19;;;;;;;12.57;5.22;;;;;;;8.19;53.00;101536.38;5037679;27;101518;-82
2021/03/28 05:54:09;;;;;;;10.80;4.47;;;;;;;8.82;52.37;101529.91;5056817;27;97084;-78
2021/03/28 05:57:12;;;;;;;10.95;4.65;;;;;;;9.22;51.56;101536.56;5073034;27;96965;-75
2021/03/28 05:59:47;;;;;;;12.13;5.18;;;;;;;9.59;50.06;101547.56;5061584;27;100656;-75
2021/03/28 06:02:34;;;;;;;11.48;5.10;;;;;;;10.35;48.82;101551.03;5042059;27;101286;-83
2021/03/28 06:05:18;;;;;;;8.23;4.32;;;;;;;10.85;47.87;101546.84;5076478;27;96892;-76
2021/03/28 06:08:17;;;;;;;27.90;10.82;;;;;;;11.12;46.86;101549.91;5078543;27;96820;-77
2021/03/28 06:11:13;;;;;;;28.52;11.05;;;;;;;11.06;47.30;101553.50;5059048;27;101342;-76
2021/03/28 06:14:09;;;;;;;45.60;15.60;;;;;;;11.83;45.78;101556.50;5058440;27;100591;-76
2021/03/28 06:17:06;;;;;;;22.52;8.82;;;;;;;12.53;44.86;101549.75;5057159;27;96691;-76
2021/03/28 06:19:50;;;;;;;16.00;5.60;;;;;;;12.99;43.91;101559.22;5075720;27;97050;-76
2021/03/28 06:22:37;;;;;;;13.95;5.05;;;;;;;13.65;42.53;101552.31;5058102;27;99880;-76
2021/03/28 06:25:25;;;;;;;9.80;3.70;;;;;;;14.69;41.09;101557.19;5058958;27;101347;-75
2021/03/28 06:28:09;;;;;;;9.95;3.88;;;;;;;15.39;39.58;101554.00;5058861;27;96643;-76
2021/03/28 06:30:56;;;;;;;7.20;2.80;;;;;;;16.32;38.24;101564.78;5076236;27;96841;-76
2021/03/28 06:33:59;;;;;;;11.05;3.65;;;;;;;18.06;35.09;101558.41;5058165;27;101310;-76
2021/03/28 06:36:25;;;;;;;5.93;2.80;;;;;;;20.04;32.50;101562.78;5076394;27;98521;-74
2021/03/28 06:39:24;;;;;;;9.18;3.53;;;;;;;21.24;30.29;101556.91;5088197;27;97292;-74
2021/03/28 06:42:11;;;;;;;8.10;2.90;;;;;;;22.68;28.78;101560.47;5068206;27;97234;-75
2021/03/28 06:44:57;;;;;;;8.77;3.10;;;;;;;23.47;27.70;101566.81;5078810;27;101880;-73
2021/03/28 06:47:57;;;;;;;9.05;3.42;;;;;;;24.04;27.15;101563.75;5078522;27;98783;-74
2021/03/28 06:50:51;;;;;;;6.80;3.28;;;;;;;23.72;27.30;101563.34;5078914;27;97030;-74
2021/03/28 06:53:31;;;;;;;8.27;3.60;;;;;;;23.15;28.13;101559.16;5056027;27;96868;-74
2021/03/28 06:56:23;;;;;;;7.15;2.67;;;;;;;21.95;28.93;101557.13;5058533;27;101915;-74
2021/03/28 06:59:17;;;;;;;7.93;3.28;;;;;;;23.68;27.10;101564.50;5050151;27;101256;-74
2021/03/28 07:01:58;;;;;;;8.38;3.20;;;;;;;23.96;27.07;101563.44;5045094;27;96836;-75
2021/03/28 07:04:35;;;;;;;7.68;3.80;;;;;;;24.60;26.75;101550.75;5048844;27;96778;-74
2021/03/28 07:07:03;;;;;;;9.52;3.50;;;;;;;24.77;26.18;101557.56;5065170;27;98349;-74
2021/03/28 07:09:35;;;;;;;7.25;3.00;;;;;;;25.55;25.52;101556.16;5050796;27;101797;-73
2021/03/28 07:12:41;;;;;;;10.45;3.45;;;;;;;24.90;25.29;101559.31;5058126;27;96659;-74
2021/03/28 07:15:30;;;;;;;8.07;3.35;;;;;;;26.44;24.06;101554.47;4989419;28;99605;-75
2021/03/28 07:18:15;;;;;;;9.32;3.65;;;;;;;26.95;23.95;101547.63;5074921;27;98556;-76
2021/03/28 07:21:08;;;;;;;6.85;2.90;;;;;;;26.62;24.00;101558.38;5083235;27;98458;-75
2021/03/28 07:24:05;;;;;;;9.63;3.17;;;;;;;27.56;23.42;101558.59;5055572;27;96825;-75
2021/03/28 07:27:08;;;;;;;10.57;3.30;;;;;;;26.19;23.92;101558.31;5072077;27;97435;-75
2021/03/28 07:29:39;;;;;;;7.32;3.13;;;;;;;27.22;23.12;101560.63;5057999;27;101686;-75
2021/03/28 07:32:26;;;;;;;7.60;3.22;;;;;;;27.16;23.21;101559.28;5095013;27;98430;-75
2021/03/28 07:35:29;;;;;;;10.50;3.33;;;;;;;27.07;23.57;101557.34;5059171;27;97458;-75
2021/03/28 07:38:12;;;;;;;5.68;2.88;;;;;;;27.27;23.42;101555.69;5054572;27;97188;-75
2021/03/28 07:40:40;;;;;;;6.53;2.90;;;;;;;25.10;25.29;101560.50;5047555;27;101904;-75
2021/03/28 07:43:09;;;;;;;10.90;3.17;;;;;;;22.42;27.89;101561.31;5075806;27;98372;-75
2021/03/28 07:45:52;;;;;;;8.45;3.83;;;;;;;20.54;29.71;101561.84;5057982;27;96820;-74
2021/03/28 07:48:42;;;;;;;8.43;2.97;;;;;;;20.22;30.41;101563.59;5054813;27;96806;-76
2021/03/28 07:51:46;;;;;;;10.47;4.10;;;;;;;18.35;32.34;101570.34;5074771;27;101206;-76
2021/03/28 07:54:18;;;;;;;9.90;3.42;;;;;;;19.81;30.87;101565.81;5069807;27;101032;-81
2021/03/28 07:56:43;;;;;;;10.93;4.13;;;;;;;22.48;27.94;101558.22;5059261;27;96977;-75
2021/03/28 07:59:30;;;;;;;9.13;2.88;;;;;;;22.43;27.72;101563.00;5094562;27;97028;-75
2021/03/28 08:02:38;;;;;;;10.23;3.67;;;;;;;22.62;27.57;101571.56;5058322;27;101491;-76
2021/03/28 08:05:28;;;;;;;9.77;3.65;;;;;;;22.55;27.83;101572.94;5010667;27;101546;-76
2021/03/28 08:08:13;;;;;;;7.43;3.10;;;;;;;22.38;27.72;101569.53;5075165;27;97393;-75
2021/03/28 08:11:12;;;;;;;9.30;2.97;;;;;;;22.89;27.52;101565.38;5075873;27;96726;-76
2021/03/28 08:14:08;;;;;;;10.00;3.85;;;;;;;23.88;26.82;101572.03;5074691;27;101323;-74
2021/03/28 08:16:54;;;;;;;9.13;4.35;;;;;;;24.91;25.35;101566.44;5059144;27;101250;-75
2021/03/28 08:19:57;;;;;;;9.10;4.05;;;;;;;25.23;25.00;101570.25;5077642;27;96704;-75
2021/03/28 08:23:05;;;;;;;10.85;3.45;;;;;;;25.63;24.12;101561.81;5076946;27;96979;-75
2021/03/28 08:25:54;;;;;;;8.48;3.50;;;;;;;26.09;24.05;101570.75;5020844;27;98804;-79
2021/03/28 08:28:43;;;;;;;8.88;3.50;;;;;;;27.22;22.63;101571.41;5072831;27;102401;-76
2021/03/28 08:31:22;;;;;;;8.95;2.97;;;;;;;26.93;22.85;101580.06;5057015;27;97305;-78
2021/03/28 08:34:09;;;;;;;5.43;2.97;;;;;;;26.35;23.19;101574.06;5037130;27;97168;-78
2021/03/28 08:36:47;;;;;;;7.78;3.55;;;;;;;26.62;23.20;101568.31;5074615;27;98245;-78
2021/03/28 08:39:50;;;;;;;8.45;3.25;;;;;;;26.51;23.03;101576.41;5076019;27;100668;-76
2021/03/28 08:42:34;;;;;;;11.35;3.67;;;;;;;27.38;22.82;101570.97;5068477;27;97125;-81
2021/03/28 08:45:07;;;;;;;10.73;3.45;;;;;;;25.63;23.96;101566.31;5076146;27;97616;-77
2021/03/28 08:47:39;;;;;;;7.82;3.20;;;;;;;24.26;24.87;101567.56;5075092;27;98083;-78
2021/03/28 08:50:10;;;;;;;9.38;3.20;;;;;;;23.69;25.67;101571.56;5076056;27;97549;-76
2021/03/28 08:52:48;;;;;;;7.22;3.08;;;;;;;24.65;25.14;101568.38;5048609;27;97105;-78
2021/03/28 08:56:01;;;;;;;10.15;3.67;;;;;;;24.79;25.06;101561.00;5052490;27;96931;-84
2021/03/28 08:58:31;;;;;;;11.48;3.65;;;;;;;23.73;25.42;101557.88;5076518;27;98593;-78
2021/03/28 09:01:06;;;;;;;10.60;3.50;;;;;;;23.05;26.27;101560.75;5042062;27;102279;-77
2021/03/28 09:04:09;;;;;;;6.88;3.25;;;;;;;22.50;27.01;101564.34;5075470;27;97379;-76
2021/03/28 09:06:46;;;;;;;10.75;3.47;;;;;;;22.48;27.13;101567.09;5075440;27;97204;-76
2021/03/28 09:09:17;;;;;;;6.78;3.03;;;;;;;;;;5061930;27;101372;-77
2021/03/28 09:11:55;;;;;;;6.20;2.78;;;;;;;20.98;28.13;101552.25;5075664;27;100288;-77
2021/03/28 09:14:51;;;;;;;9.98;3.03;;;;;;;20.30;28.82;101553.38;5075866;27;97211;-77
2021/03/28 09:17:29;;;;;;;8.25;2.58;;;;;;;19.47;29.89;101558.72;5076061;27;97302;-81
2021/03/28 09:19:54;;;;;;;16.70;3.72;;;;;;;19.17;30.48;101565.53;5058520;27;101835;-77
2021/03/28 09:22:23;;;;;;;9.75;3.10;;;;;;;19.73;30.08;101563.56;5093809;27;97917;-77
2021/03/28 09:24:55;;;;;;;10.23;3.35;;;;;;;19.11;30.36;101564.94;5075559;27;97276;-77
2021/03/28 09:27:33;;;;;;;10.48;3.20;;;;;;;19.45;30.59;101564.97;5058174;27;97124;-76
2021/03/28 09:30:01;;;;;;;12.45;4.07;;;;;;;18.53;32.02;101558.00;5058127;27;100751;-76
2021/03/28 09:32:33;;;;;;;7.93;2.58;;;;;;;18.56;31.66;101560.53;5058495;27;100728;-76
2021/03/28 09:35:40;;;;;;;10.40;3.58;;;;;;;17.54;32.33;101558.94;5093397;27;96663;-76
2021/03/28 09:38:34;;;;;;;11.45;3.45;;;;;;;17.29;33.47;101556.47;5048698;27;97439;-75
2021/03/28 09:41:21;;;;;;;8.02;2.85;;;;;;;17.90;32.84;101555.59;5079059;27;101630;-77
2021/03/28 09:44:27;;;;;;;10.40;4.20;;;;;;;17.94;31.96;101557.19;5097928;27;97881;-76
2021/03/28 09:47:13;;;;;;;8.50;2.85;;;;;;;17.84;32.49;101554.09;5065819;27;97024;-77
2021/03/28 09:49:51;;;;;;;11.40;2.97;;;;;;;17.74;32.28;101554.53;5062580;27;96698;-76
2021/03/28 09:52:29;;;;;;;12.32;3.42;;;;;;;17.11;32.93;101555.44;5097917;27;97686;-82
2021/03/28 09:55:32;;;;;;;12.10;3.58;;;;;;;17.09;32.98;101549.34;5052126;27;101428;-77
2021/03/28 09:58:28;;;;;;;8.32;3.35;;;;;;;16.92;32.88;101557.97;5066643;27;97143;-77
2021/03/28 10:01:09;;;;;;;8.82;3.50;;;;;;;16.52;33.44;101551.63;5057038;27;97271;-77
2021/03/28 10:03:57;;;;;;;9.23;3.75;;;;;;;16.85;33.48;101558.31;5069039;27;101521;-77
2021/03/28 10:06:25;;;;;;;12.50;3.40;;;;;;;16.25;34.37;101561.47;5097052;27;97863;-77
2021/03/28 10:09:00;;;;;;;14.25;4.00;;;;;;;16.40;33.89;101567.13;5079448;27;96664;-77
2021/03/28 10:11:25;;;;;;;10.73;3.25;;;;;;;16.23;34.12;101568.66;5062322;27;97171;-76
2021/03/28 10:14:06;;;;;;;15.77;4.25;;;;;;;16.14;34.18;101576.06;5057928;27;101155;-77
2021/03/28 10:17:09;;;;;;;12.80;4.10;;;;;;;15.60;34.26;101578.84;5060840;27;100570;-77
2021/03/28 10:19:38;;;;;;;12.00;4.32;;;;;;;15.44;35.23;101584.69;5061658;27;97031;-76
2021/03/28 10:22:22;;;;;;;13.60;4.68;;;;;;;15.52;34.94;101583.53;5060127;27;96849;-76
2021/03/28 10:25:25;;;;;;;11.38;4.93;;;;;;;15.10;35.36;101591.16;5060804;27;101626;-76
2021/03/28 10:28:09;;;;;;;11.85;3.25;;;;;;;15.04;35.82;101589.56;5041167;27;98118;-79
2021/03/28 10:31:15;;;;;;;10.52;3.53;;;;;;;15.02;35.81;101591.38;5098019;27;96976;-76
2021/03/28 10:33:40;;;;;;;10.45;3.60;;;;;;;14.95;35.27;101581.91;5052606;27;97489;-76
2021/03/28 10:36:34;;;;;;;9.45;3.40;;;;;;;15.07;35.40;101578.88;5070062;27;98571;-75
2021/03/28 10:39:34;;;;;;;11.20;3.97;;;;;;;15.08;35.45;101575.31;5090797;27;97523;-76
2021/03/28 10:42:22;;;;;;;13.15;3.92;;;;;;;15.08;35.97;101570.03;5040298;27;97415;-76
2021/03/28 10:45:06;;;;;;;13.57;3.88;;;;;;;15.05;36.15;101569.28;5055996;27;96882;-76
2021/03/28 10:48:09;;;;;;;9.85;3.05;;;;;;;15.13;35.44;101570.75;5087277;27;98237;-76
2021/03/28 10:51:13;;;;;;;9.30;3.45;;;;;;;14.89;34.79;101572.41;5058437;27;101551;-77
2021/03/28 10:54:08;;;;;;;8.68;2.83;;;;;;;14.79;35.21;101559.53;4987388;28;98195;-80
2021/03/28 10:56:58;;;;;;;8.77;3.22;;;;;;;14.96;35.37;101565.16;5054712;27;97112;-77
2021/03/28 10:59:42;;;;;;;9.05;2.83;;;;;;;15.18;35.28;101573.22;5060782;27;99918;-81
2021/03/28 11:02:50;;;;;;;7.90;2.88;;;;;;;15.50;34.59;101566.81;5078728;27;101812;-77
2021/03/28 11:05:43;;;;;;;11.82;4.32;;;;;;;15.14;34.88;101563.66;5031272;27;98568;-77
2021/03/28 11:08:27;;;;;;;8.82;4.03;;;;;;;15.34;34.51;101571.78;5079843;27;96907;-74
2021/03/28 11:11:07;;;;;;;9.27;3.53;;;;;;;15.62;34.50;101555.84;5062660;27;101514;-75
2021/03/28 11:13:51;;;;;;;7.55;3.30;;;;;;;15.54;34.87;101555.25;5079082;27;101379;-76
2021/03/28 11:16:39;;;;;;;8.45;2.83;;;;;;;15.76;34.33;101555.34;5062904;27;97092;-76
2021/03/28 11:19:43;;;;;;;9.07;3.22;;;;;;;15.56;33.63;101552.53;5059403;27;97018;-76
2021/03/28 11:22:17;;;;;;;13.90;4.18;;;;;;;15.72;33.71;101558.19;5055445;27;101447;-75
2021/03/28 11:25:03;;;;;;;9.32;3.45;;;;;;;15.51;33.41;101554.50;5091825;27;98165;-76
2021/03/28 11:27:28;;;;;;;8.00;3.45;;;;;;;15.31;33.57;101549.88;5043688;27;97359;-76
2021/03/28 11:30:16;;;;;;;12.32;4.45;;;;;;;15.59;33.70;101552.41;5079610;27;97025;-76
2021/03/28 11:32:57;;;;;;;7.88;3.08;;;;;;;15.59;33.94;101549.75;5061744;27;101366;-77
2021/03/28 11:35:32;;;;;;;9.20;3.17;;;;;;;15.66;34.12;101547.78;5078949;27;101447;-82
2021/03/28 11:38:16;;;;;;;12.35;3.50;;;;;;;15.83;34.08;101535.69;5041928;27;97006;-76
2021/03/28 11:40:47;;;;;;;10.10;3.35;;;;;;;15.74;34.08;101540.47;5084943;27;97069;-78
2021/03/28 11:43:23;;;;;;;13.85;4.25;;;;;;;15.58;33.47;101545.41;5061946;27;101747;-76
2021/03/28 11:45:51;;;;;;;9.88;4.05;;;;;;;15.60;33.36;101541.78;5062399;27;98436;-76
2021/03/28 11:48:27;;;;;;;13.88;3.95;;;;;;;15.44;33.49;101535.28;5062197;27;97146;-76
2021/03/28 11:50:56;;;;;;;11.50;3.97;;;;;;;15.08;34.74;101534.78;5059396;27;96717;-75
2021/03/28 11:53:25;;;;;;;13.80;3.42;;;;;;;14.99;35.14;101535.09;5068645;27;98064;-81
2021/03/28 11:56:00;;;;;;;9.95;3.33;;;;;;;15.03;34.02;101534.94;5064948;27;98180;-76
2021/03/28 11:58:44;;;;;;;9.10;3.40;;;;;;;14.85;34.49;101536.41;5078520;27;96933;-76
2021/03/28 12:01:10;;;;;;;9.32;3.28;;;;;;;15.06;34.35;101526.88;5031794;27;96784;-76
2021/03/28 12:03:38;;;;;;;10.98;2.95;;;;;;;14.85;33.63;101536.41;5043587;27;101356;-76
2021/03/28 12:06:19;;;;;;;8.32;3.20;;;;;;;14.82;33.66;101531.22;5058166;27;97858;-76
2021/03/28 12:08:44;;;;;;;12.53;3.07;;;;;;;14.84;33.07;101525.91;5061068;27;97132;-75
2021/03/28 12:11:37;;;;;;;10.10;4.03;;;;;;;14.55;32.96;101527.69;5058362;27;96901;-76
2021/03/28 12:14:12;;;;;;;6.78;2.92;;;;;;;14.46;33.21;101528.81;5043636;27;101631;-76
2021/03/28 12:17:05;;;;;;;6.18;2.50;;;;;;;14.58;33.51;101519.66;5072263;27;98287;-76
2021/03/28 12:20:02;;;;;;;8.55;3.20;;;;;;;14.63;33.56;101517.75;5060803;27;97576;-76
2021/03/28 12:22:33;;;;;;;9.50;3.08;;;;;;;14.23;34.24;101521.59;5038749;27;96947;-76
2021/03/28 12:25:01;;;;;;;10.40;3.38;;;;;;;14.22;34.24;101518.97;5074338;27;98200;-75
2021/03/28 12:27:44;;;;;;;10.48;2.97;;;;;;;14.15;33.69;101517.44;5077332;27;101448;-76
2021/03/28 12:30:42;;;;;;;10.82;3.45;;;;;;;14.22;33.70;101519.88;5058004;27;96829;-76
2021/03/28 12:33:18;;;;;;;9.48;2.92;;;;;;;14.21;33.31;101517.25;5052313;27;96963;-75
2021/03/28 12:35:47;;;;;;;9.20;3.50;;;;;;;14.19;33.81;101509.38;5057256;27;101579;-76
2021/03/28 12:38:26;;;;;;;8.40;3.72;;;;;;;14.13;33.42;101504.28;5054917;27;101253;-76
2021/03/28 12:41:14;;;;;;;9.63;3.00;;;;;;;14.29;33.69;101512.63;5071809;27;96878;-76